Terminal Aerodrome Forecast
Issued by NWS

Home | Current Version | Previous Version | Graphics & Text | Print | Product List | Glossary On
Versions: 1 2 3 4 5 6 7 8 9 10 11 12 13 14 15 16 17 18 19 20 21 22 23 24 25 26 27
000
FTUS43 KLOT 232035 AAB
TAFORD
TAF AMD
KORD 232035Z 2321/2424 36015KT P6SM VCTS SCT040 BKN070CB
      TEMPO 2321/2323 36015G20KT 5SM TSRA
     FM232300 02007KT P6SM SCT040
     FM241200 02011KT P6SM BKN020
     FM241800 03010KT P6SM SCT020=

USA.gov is the U.S. government's official web portal to all federal, state and local government web resources and services.